Time;durP1;ratioP1;P1;durP2;ratioP2;P2;SDS_P1;SDS_P2;PMS_P1;PMS_P2;Temp;Humidity;BMP_temperature;BMP_pressure;BME280_temperature;BME280_humidity;BME280_pressure;Samples;Min_cycle;Max_cycle;Signal;HPM_P1;HPM_P2
2023/01/27 00:02:19;;;;;;;24.15;13.25;;;;;;;;;;6108975;23;20023;-81
2023/01/27 00:05:06;;;;;;;28.88;15.50;;;;;;;;;;6108688;23;20026;-81
2023/01/27 00:07:52;;;;;;;24.88;13.95;;;;;;;;;;6109038;23;20019;-79
2023/01/27 00:10:38;;;;;;;24.80;14.98;;;;;;;;;;6108391;23;20015;-81
2023/01/27 00:13:25;;;;;;;25.80;14.15;;;;;;;;;;6067132;23;20018;-81
2023/01/27 00:16:10;;;;;;;26.15;13.55;;;;;;;;;;6109213;23;20436;-80
2023/01/27 00:18:55;;;;;;;26.23;14.35;;;;;;;;;;6108763;23;20026;-82
2023/01/27 00:24:44;;;;;;;39.60;18.23;;;;;;;;;;6107331;23;20443;-82
2023/01/27 00:27:30;;;;;;;29.40;15.20;;;;;;;;;;6107439;23;20018;-81
2023/01/27 00:30:16;;;;;;;23.52;14.10;;;;;;;;;;6107474;23;20018;-81
2023/01/27 00:36:08;;;;;;;20.40;12.80;;;;;;;;;;6107463;23;20022;-80
2023/01/27 00:38:53;;;;;;;22.65;12.63;;;;;;;;;;6106984;23;20019;-81
2023/01/27 00:41:39;;;;;;;23.08;14.23;;;;;;;;;;6107375;23;20022;-80
2023/01/27 00:44:24;;;;;;;24.63;13.73;;;;;;;;;;6107383;23;20018;-81
2023/01/27 00:47:09;;;;;;;23.67;13.35;;;;;;;;;;6107338;23;20022;-81
2023/01/27 00:49:56;;;;;;;26.25;13.38;;;;;;;;;;6108406;23;20018;-80
2023/01/27 00:52:43;;;;;;;21.88;13.15;;;;;;;;;;6108268;23;20351;-82
2023/01/27 00:55:28;;;;;;;20.67;12.82;;;;;;;;;;6108313;23;20026;-80
2023/01/27 00:58:14;;;;;;;17.88;11.18;;;;;;;;;;6108344;23;20018;-81
2023/01/27 01:01:02;;;;;;;20.20;12.10;;;;;;;;;;6107133;23;20018;-80
2023/01/27 01:03:47;;;;;;;24.67;12.20;;;;;;;;;;6107242;23;20440;-80
2023/01/27 01:06:32;;;;;;;23.85;12.55;;;;;;;;;;6108289;23;20022;-80
2023/01/27 01:09:17;;;;;;;23.77;12.98;;;;;;;;;;6107076;23;20018;-80
2023/01/27 01:12:03;;;;;;;21.73;12.50;;;;;;;;;;6106669;23;20022;-82
2023/01/27 01:14:48;;;;;;;24.60;13.57;;;;;;;;;;6086977;23;20022;-80
2023/01/27 01:17:33;;;;;;;25.63;13.13;;;;;;;;;;6107043;23;20018;-80
2023/01/27 01:20:18;;;;;;;25.27;13.07;;;;;;;;;;6106872;23;20022;-81
2023/01/27 01:23:06;;;;;;;21.52;12.48;;;;;;;;;;6066861;23;20440;-81
2023/01/27 01:25:53;;;;;;;22.73;12.40;;;;;;;;;;6108594;23;20348;-81
2023/01/27 01:28:38;;;;;;;20.30;11.10;;;;;;;;;;6108037;23;20022;-82
2023/01/27 01:31:25;;;;;;;17.10;10.55;;;;;;;;;;6107921;23;20024;-80
2023/01/27 01:34:10;;;;;;;20.05;11.18;;;;;;;;;;6086430;23;20015;-81
2023/01/27 01:36:55;;;;;;;24.67;11.90;;;;;;;;;;6086685;23;20126;-82
2023/01/27 01:39:41;;;;;;;19.75;11.38;;;;;;;;;;6067282;23;20018;-80
2023/01/27 01:42:25;;;;;;;18.98;11.52;;;;;;;;;;6086209;23;20371;-82
2023/01/27 01:45:35;;;;;;;21.38;12.52;;;;;;;;;;6086256;23;20341;-82
2023/01/27 01:48:42;;;;;;;23.35;12.80;;;;;;;;;;6107583;23;20022;-80
2023/01/27 01:51:29;;;;;;;18.90;11.23;;;;;;;;;;6086399;23;20023;-81
2023/01/27 01:54:38;;;;;;;18.63;11.38;;;;;;;;;;6086122;23;20023;-82
2023/01/27 01:57:32;;;;;;;20.35;11.52;;;;;;;;;;6108141;23;20022;-82
2023/01/27 02:00:18;;;;;;;24.65;12.45;;;;;;;;;;6107914;23;20022;-80
2023/01/27 02:03:04;;;;;;;24.60;12.65;;;;;;;;;;6086100;23;20018;-81
2023/01/27 02:05:51;;;;;;;21.63;12.35;;;;;;;;;;6107810;23;20018;-81
2023/01/27 02:08:44;;;;;;;22.60;12.65;;;;;;;;;;6107789;23;20026;-80
2023/01/27 02:11:29;;;;;;;19.58;11.82;;;;;;;;;;6086210;23;20018;-80
2023/01/27 02:14:16;;;;;;;23.48;14.23;;;;;;;;;;6086333;23;20022;-82
2023/01/27 02:17:03;;;;;;;22.15;12.82;;;;;;;;;;6107403;23;20026;-81
2023/01/27 02:20:18;;;;;;;24.00;13.05;;;;;;;;;;6086213;23;20026;-80
2023/01/27 02:23:22;;;;;;;22.02;13.07;;;;;;;;;;6107553;23;20023;-79
2023/01/27 02:26:14;;;;;;;23.33;12.98;;;;;;;;;;6107561;23;20019;-80
2023/01/27 02:29:04;;;;;;;25.77;13.73;;;;;;;;;;6107663;23;20022;-81
2023/01/27 02:31:49;;;;;;;26.98;14.15;;;;;;;;;;6086043;23;20018;-79
2023/01/27 02:34:37;;;;;;;23.98;14.57;;;;;;;;;;6085943;23;20030;-80
2023/01/27 02:37:23;;;;;;;24.48;13.57;;;;;;;;;;6107462;23;20018;-81
2023/01/27 02:40:09;;;;;;;28.02;14.93;;;;;;;;;;6086473;23;20022;-80
2023/01/27 02:42:56;;;;;;;30.85;14.85;;;;;;;;;;6086046;23;20018;-80
2023/01/27 02:45:45;;;;;;;23.98;13.82;;;;;;;;;;6086186;23;20014;-80
2023/01/27 02:48:29;;;;;;;26.48;13.50;;;;;;;;;;6085821;23;20022;-80
2023/01/27 02:51:16;;;;;;;25.65;14.05;;;;;;;;;;6085695;23;20122;-80
2023/01/27 02:54:02;;;;;;;22.45;13.70;;;;;;;;;;6066204;23;20018;-80
2023/01/27 02:56:47;;;;;;;29.88;14.68;;;;;;;;;;6085651;23;20022;-81
2023/01/27 02:59:34;;;;;;;25.02;14.02;;;;;;;;;;6065961;23;20019;-80
2023/01/27 03:02:29;;;;;;;24.70;13.60;;;;;;;;;;6066244;23;20026;-81
2023/01/27 03:05:14;;;;;;;26.90;13.55;;;;;;;;;;6065363;23;20022;-80
2023/01/27 03:07:59;;;;;;;23.33;13.10;;;;;;;;;;6086267;23;20018;-80
2023/01/27 03:10:53;;;;;;;19.67;11.93;;;;;;;;;;6106997;23;20014;-81
2023/01/27 03:13:40;;;;;;;20.58;12.57;;;;;;;;;;6085866;23;20018;-81
2023/01/27 03:19:29;;;;;;;20.17;11.30;;;;;;;;;;6106939;23;20019;-80
2023/01/27 03:22:15;;;;;;;19.13;10.85;;;;;;;;;;6099826;23;20022;-80
2023/01/27 03:25:01;;;;;;;15.90;10.00;;;;;;;;;;6065483;23;20022;-80
2023/01/27 03:27:46;;;;;;;17.70;10.95;;;;;;;;;;6086020;23;20022;-81
2023/01/27 03:30:49;;;;;;;15.18;10.48;;;;;;;;;;6085450;23;20018;-80
2023/01/27 03:33:42;;;;;;;18.05;10.43;;;;;;;;;;6085442;23;20026;-80
2023/01/27 03:46:18;;;;;;;14.77;9.00;;;;;;;;;;6085292;23;20022;-80
2023/01/27 03:49:03;;;;;;;14.60;9.10;;;;;;;;;;6085612;23;20022;-80
2023/01/27 03:51:49;;;;;;;14.02;8.98;;;;;;;;;;6085398;23;20022;-80
2023/01/27 03:54:34;;;;;;;15.23;9.27;;;;;;;;;;6106787;23;20022;-81
2023/01/27 03:57:19;;;;;;;15.93;8.93;;;;;;;;;;6085632;23;20026;-81
2023/01/27 04:00:05;;;;;;;17.13;9.43;;;;;;;;;;6107008;23;20348;-80
2023/01/27 04:09:17;;;;;;;17.55;9.50;;;;;;;;;;6106763;23;20018;-80
2023/01/27 04:12:04;;;;;;;15.38;8.65;;;;;;;;;;6086116;23;20027;-81
2023/01/27 04:14:51;;;;;;;19.25;9.75;;;;;;;;;;6106400;23;20022;-79
2023/01/27 04:17:40;;;;;;;20.92;10.15;;;;;;;;;;6085668;23;20022;-79
2023/01/27 04:20:26;;;;;;;16.25;8.93;;;;;;;;;;6105515;23;20019;-80
2023/01/27 04:23:12;;;;;;;18.63;8.68;;;;;;;;;;6106678;23;20022;-80
2023/01/27 04:25:59;;;;;;;14.32;9.00;;;;;;;;;;6107062;23;20022;-79
2023/01/27 04:28:45;;;;;;;17.67;9.57;;;;;;;;;;6084847;23;20026;-79
2023/01/27 04:31:31;;;;;;;15.30;9.13;;;;;;;;;;6106929;23;20018;-80
2023/01/27 04:34:17;;;;;;;13.18;8.95;;;;;;;;;;6106872;23;20026;-80
2023/01/27 04:37:04;;;;;;;13.27;8.48;;;;;;;;;;6106649;23;20018;-80
2023/01/27 04:39:48;;;;;;;16.38;8.38;;;;;;;;;;6085222;23;20018;-80
2023/01/27 04:42:33;;;;;;;14.60;7.88;;;;;;;;;;6106443;23;20360;-80
2023/01/27 04:45:19;;;;;;;17.02;9.43;;;;;;;;;;6106804;23;20022;-80
2023/01/27 04:48:05;;;;;;;15.73;8.35;;;;;;;;;;6107980;23;20018;-80
2023/01/27 04:50:50;;;;;;;12.50;8.15;;;;;;;;;;6086444;23;20022;-80
2023/01/27 04:53:36;;;;;;;15.52;8.68;;;;;;;;;;6108604;23;20026;-80
2023/01/27 04:56:29;;;;;;;10.63;6.25;;;;;;;;;;6108059;23;20018;-80
2023/01/27 04:59:14;;;;;;;12.88;7.22;;;;;;;;;;6087385;23;20446;-79
2023/01/27 05:02:00;;;;;;;12.48;8.30;;;;;;;;;;6108459;23;20026;-80
2023/01/27 05:04:45;;;;;;;12.25;7.32;;;;;;;;;;6107872;23;20023;-80
2023/01/27 05:07:31;;;;;;;15.32;8.70;;;;;;;;;;6108569;23;20353;-80
2023/01/27 05:10:16;;;;;;;13.00;8.25;;;;;;;;;;6108020;23;20022;-80
2023/01/27 05:13:02;;;;;;;11.32;6.45;;;;;;;;;;6108225;23;20026;-80
2023/01/27 05:15:47;;;;;;;17.02;9.23;;;;;;;;;;6108646;23;20026;-80
2023/01/27 05:18:33;;;;;;;17.90;9.65;;;;;;;;;;6107739;23;20022;-80
2023/01/27 05:21:29;;;;;;;17.77;11.05;;;;;;;;;;6092717;23;20026;-79
2023/01/27 05:24:14;;;;;;;20.23;11.43;;;;;;;;;;6106694;23;20015;-79
2023/01/27 05:27:00;;;;;;;30.48;13.15;;;;;;;;;;6107054;23;20023;-79
2023/01/27 05:29:45;;;;;;;20.83;11.45;;;;;;;;;;6106896;23;20022;-80
2023/01/27 05:32:30;;;;;;;15.77;9.32;;;;;;;;;;6107560;23;20023;-80
2023/01/27 05:35:15;;;;;;;24.90;12.45;;;;;;;;;;6107424;23;20018;-79
2023/01/27 05:38:00;;;;;;;25.83;13.18;;;;;;;;;;6108162;23;20014;-80
2023/01/27 05:40:45;;;;;;;28.25;13.35;;;;;;;;;;6106731;23;20436;-80
2023/01/27 05:43:32;;;;;;;29.25;13.25;;;;;;;;;;6107942;23;20018;-80
2023/01/27 05:46:19;;;;;;;23.98;12.48;;;;;;;;;;6106270;23;20030;-80
2023/01/27 05:49:05;;;;;;;21.88;11.90;;;;;;;;;;6106100;23;20437;-79
2023/01/27 05:51:50;;;;;;;23.00;11.95;;;;;;;;;;6106668;23;20022;-80
2023/01/27 05:54:35;;;;;;;27.85;14.50;;;;;;;;;;6106605;23;20019;-80
2023/01/27 05:57:20;;;;;;;30.90;18.27;;;;;;;;;;6106716;23;20022;-79
2023/01/27 06:00:07;;;;;;;30.50;17.48;;;;;;;;;;6107356;23;20022;-80
2023/01/27 06:02:53;;;;;;;30.08;18.05;;;;;;;;;;6107827;23;20022;-80
2023/01/27 06:05:55;;;;;;;29.38;17.50;;;;;;;;;;6107911;23;20444;-80
2023/01/27 06:08:41;;;;;;;28.90;18.25;;;;;;;;;;6107553;23;20018;-80
2023/01/27 06:11:26;;;;;;;36.67;18.67;;;;;;;;;;6107387;23;20022;-79
2023/01/27 06:14:12;;;;;;;32.90;17.42;;;;;;;;;;6106740;23;20022;-79
2023/01/27 06:16:59;;;;;;;28.25;14.63;;;;;;;;;;6106476;23;20022;-80
2023/01/27 06:19:45;;;;;;;25.17;14.48;;;;;;;;;;6107750;23;20022;-81
2023/01/27 06:22:30;;;;;;;29.08;15.75;;;;;;;;;;6107062;23;20022;-80
2023/01/27 06:25:16;;;;;;;27.10;14.70;;;;;;;;;;6106586;23;20348;-79
2023/01/27 06:28:02;;;;;;;22.40;13.02;;;;;;;;;;6107169;23;20022;-81
2023/01/27 06:30:47;;;;;;;28.83;16.25;;;;;;;;;;6105234;23;20019;-81
2023/01/27 06:33:32;;;;;;;25.25;14.10;;;;;;;;;;6107247;23;20336;-81
2023/01/27 06:36:19;;;;;;;28.90;16.55;;;;;;;;;;6107002;23;20022;-80
2023/01/27 06:39:05;;;;;;;29.23;17.15;;;;;;;;;;6106431;23;20026;-80
2023/01/27 06:41:50;;;;;;;27.98;15.10;;;;;;;;;;6105848;23;20412;-80
2023/01/27 06:44:35;;;;;;;24.40;14.25;;;;;;;;;;6107312;23;20022;-81
2023/01/27 06:47:21;;;;;;;29.38;15.68;;;;;;;;;;6106320;23;20023;-80
2023/01/27 06:50:08;;;;;;;33.78;17.17;;;;;;;;;;6106855;23;20332;-81
2023/01/27 06:52:58;;;;;;;19.52;10.85;;;;;;;;;;6106538;23;20420;-81
2023/01/27 06:55:44;;;;;;;36.13;18.67;;;;;;;;;;6106164;23;20348;-79
2023/01/27 06:58:29;;;;;;;29.88;16.00;;;;;;;;;;6105929;23;20022;-81
2023/01/27 07:01:14;;;;;;;24.27;13.95;;;;;;;;;;6106237;23;20449;-81
2023/01/27 07:04:00;;;;;;;27.67;15.38;;;;;;;;;;6105800;23;20372;-82
2023/01/27 07:06:45;;;;;;;40.50;21.80;;;;;;;;;;6106111;23;20018;-79
2023/01/27 07:09:30;;;;;;;22.13;14.30;;;;;;;;;;6106552;23;20018;-81
2023/01/27 07:12:16;;;;;;;49.88;24.73;;;;;;;;;;6106998;23;20022;-82
2023/01/27 07:15:01;;;;;;;41.30;21.33;;;;;;;;;;6107237;23;20026;-80
2023/01/27 07:17:47;;;;;;;35.28;20.00;;;;;;;;;;6106732;23;20026;-80
2023/01/27 07:20:32;;;;;;;36.83;18.60;;;;;;;;;;6104974;23;20018;-80
2023/01/27 07:23:17;;;;;;;49.03;25.85;;;;;;;;;;6106848;23;20356;-81
2023/01/27 07:26:03;;;;;;;63.53;27.52;;;;;;;;;;6106850;23;20022;-81
2023/01/27 07:28:48;;;;;;;48.00;22.63;;;;;;;;;;6107150;23;20444;-81
2023/01/27 07:31:33;;;;;;;;;;;;;;;;;;6110243;23;20022;-83
2023/01/27 07:34:18;;;;;;;45.88;21.52;;;;;;;;;;6113311;23;19917;-80
2023/01/27 07:37:04;;;;;;;33.42;16.52;;;;;;;;;;6091710;23;20018;-79
2023/01/27 07:39:49;;;;;;;47.13;21.77;;;;;;;;;;6112438;23;20019;-79
2023/01/27 07:42:34;;;;;;;34.80;16.80;;;;;;;;;;6112646;23;20018;-79
2023/01/27 07:45:20;;;;;;;50.90;20.25;;;;;;;;;;6112463;23;20023;-80
2023/01/27 07:48:07;;;;;;;45.25;20.00;;;;;;;;;;6113184;23;20027;-80
2023/01/27 07:50:52;;;;;;;39.38;18.55;;;;;;;;;;6109756;23;20022;-81
2023/01/27 07:53:38;;;;;;;37.40;18.02;;;;;;;;;;6106580;23;20296;-80
2023/01/27 07:56:23;;;;;;;39.75;17.05;;;;;;;;;;6106715;23;20429;-81
2023/01/27 07:59:11;;;;;;;27.08;13.38;;;;;;;;;;6106685;23;20026;-80
2023/01/27 08:01:56;;;;;;;31.23;14.55;;;;;;;;;;6106720;23;20026;-81
2023/01/27 08:04:41;;;;;;;32.08;16.85;;;;;;;;;;6084852;23;20022;-81
2023/01/27 08:07:27;;;;;;;35.60;18.90;;;;;;;;;;6106679;23;20022;-82
2023/01/27 08:10:12;;;;;;;86.18;33.88;;;;;;;;;;6106992;23;20022;-81
2023/01/27 08:12:57;;;;;;;75.88;32.30;;;;;;;;;;6084998;23;20444;-81
2023/01/27 08:15:42;;;;;;;31.75;17.35;;;;;;;;;;6106563;23;20018;-81
2023/01/27 08:18:28;;;;;;;54.58;23.75;;;;;;;;;;6085174;23;20022;-82
2023/01/27 08:21:16;;;;;;;44.28;19.92;;;;;;;;;;6101703;23;20032;-84
2023/01/27 08:24:02;;;;;;;83.97;32.33;;;;;;;;;;6066871;23;20336;-82
2023/01/27 08:26:48;;;;;;;105.93;33.03;;;;;;;;;;6086856;23;20026;-81
2023/01/27 08:29:33;;;;;;;33.97;18.20;;;;;;;;;;6108336;23;20015;-81
2023/01/27 08:32:19;;;;;;;35.60;18.23;;;;;;;;;;6108585;23;20022;-81
2023/01/27 08:35:05;;;;;;;28.95;17.08;;;;;;;;;;6108299;23;20019;-81
2023/01/27 08:37:50;;;;;;;36.35;20.35;;;;;;;;;;6108338;23;20044;-82
2023/01/27 08:40:36;;;;;;;35.60;19.08;;;;;;;;;;6108409;23;20022;-80
2023/01/27 08:43:21;;;;;;;36.67;20.38;;;;;;;;;;6108697;23;20026;-81
2023/01/27 08:46:08;;;;;;;43.50;20.85;;;;;;;;;;6108580;23;20022;-82
2023/01/27 08:48:53;;;;;;;46.75;23.05;;;;;;;;;;6086658;23;20027;-81
2023/01/27 08:51:39;;;;;;;49.10;23.70;;;;;;;;;;6086624;23;20022;-81
2023/01/27 08:54:24;;;;;;;37.75;21.33;;;;;;;;;;6108071;23;20027;-81
2023/01/27 08:57:10;;;;;;;35.53;19.38;;;;;;;;;;6108853;23;20018;-81
2023/01/27 08:59:55;;;;;;;42.47;18.83;;;;;;;;;;6108303;23;20022;-80
2023/01/27 09:02:40;;;;;;;28.27;15.77;;;;;;;;;;6108150;23;20019;-81
2023/01/27 09:05:26;;;;;;;30.27;16.27;;;;;;;;;;6086861;23;20340;-79
2023/01/27 09:08:11;;;;;;;38.65;18.52;;;;;;;;;;6107997;23;20452;-81
2023/01/27 09:10:56;;;;;;;36.92;19.25;;;;;;;;;;6087202;23;20018;-80
2023/01/27 09:13:42;;;;;;;32.05;16.30;;;;;;;;;;6107870;23;20444;-80
2023/01/27 09:16:27;;;;;;;35.70;17.63;;;;;;;;;;6107923;23;20018;-81
2023/01/27 09:19:13;;;;;;;40.03;20.20;;;;;;;;;;6086479;23;20022;-82
2023/01/27 09:21:58;;;;;;;29.02;15.07;;;;;;;;;;6100604;23;20022;-80
2023/01/27 09:24:44;;;;;;;29.80;16.25;;;;;;;;;;6108212;23;20026;-80
2023/01/27 09:27:30;;;;;;;29.30;15.88;;;;;;;;;;6107563;23;20027;-81
2023/01/27 09:30:15;;;;;;;27.55;16.33;;;;;;;;;;6107952;23;20018;-79
2023/01/27 09:33:00;;;;;;;25.33;14.43;;;;;;;;;;6086319;23;20341;-80
2023/01/27 09:35:51;;;;;;;16.52;9.85;;;;;;;;;;6107988;23;20352;-80
2023/01/27 09:38:43;;;;;;;20.58;12.25;;;;;;;;;;6107998;23;20022;-80
2023/01/27 09:41:50;;;;;;;22.13;12.57;;;;;;;;;;6086112;23;20022;-83
2023/01/27 09:45:05;;;;;;;16.25;8.55;;;;;;;;;;6086134;23;20023;-79
2023/01/27 09:48:12;;;;;;;11.20;6.43;;;;;;;;;;6086124;23;20022;-80
2023/01/27 09:51:07;;;;;;;19.25;8.35;;;;;;;;;;6107873;23;20022;-79
2023/01/27 09:54:05;;;;;;;19.75;10.15;;;;;;;;;;6086128;23;20022;-79
2023/01/27 09:57:09;;;;;;;12.35;5.28;;;;;;;;;;6066305;23;20015;-78
2023/01/27 10:00:34;;;;;;;18.33;10.23;;;;;;;;;;6108518;23;20026;-80
2023/01/27 10:03:27;;;;;;;8.07;4.82;;;;;;;;;;6053329;23;20026;-79
2023/01/27 10:06:18;;;;;;;19.92;10.15;;;;;;;;;;6107296;23;20018;-80
2023/01/27 10:09:14;;;;;;;14.20;9.60;;;;;;;;;;6107225;23;20015;-80
2023/01/27 10:12:28;;;;;;;6.18;4.43;;;;;;;;;;6107459;23;20022;-80
2023/01/27 10:15:48;;;;;;;11.45;7.03;;;;;;;;;;6065682;23;20022;-80
2023/01/27 10:18:58;;;;;;;8.95;5.25;;;;;;;;;;6085151;23;20022;-79
2023/01/27 10:21:58;;;;;;;4.65;2.97;;;;;;;;;;6101505;23;20022;-80
2023/01/27 10:25:06;;;;;;;7.65;4.40;;;;;;;;;;6065779;23;20022;-81
2023/01/27 10:27:58;;;;;;;8.30;4.43;;;;;;;;;;6066276;23;20459;-81
2023/01/27 10:31:04;;;;;;;6.03;4.10;;;;;;;;;;6085749;23;20022;-81
2023/01/27 10:33:52;;;;;;;10.23;6.85;;;;;;;;;;6085293;23;20019;-80
2023/01/27 10:36:52;;;;;;;8.95;6.22;;;;;;;;;;6085940;23;20018;-80
2023/01/27 10:39:38;;;;;;;9.70;6.45;;;;;;;;;;6085158;23;20027;-82
2023/01/27 10:42:48;;;;;;;8.50;6.32;;;;;;;;;;6107350;23;20026;-82
2023/01/27 10:45:41;;;;;;;13.68;8.05;;;;;;;;;;6085197;23;20443;-80
2023/01/27 10:48:32;;;;;;;7.10;4.72;;;;;;;;;;6085953;23;20018;-80
2023/01/27 10:51:40;;;;;;;5.20;4.25;;;;;;;;;;6085548;23;20352;-82
2023/01/27 10:55:12;;;;;;;11.68;6.57;;;;;;;;;;6065311;23;20022;-80
2023/01/27 10:58:38;;;;;;;8.10;5.82;;;;;;;;;;6085539;23;20026;-81
2023/01/27 11:01:41;;;;;;;13.35;7.13;;;;;;;;;;6085525;23;20023;-81
2023/01/27 11:04:41;;;;;;;15.80;8.48;;;;;;;;;;6107158;23;20018;-80
2023/01/27 11:07:29;;;;;;;13.02;6.97;;;;;;;;;;6085359;23;20015;-79
2023/01/27 11:10:20;;;;;;;11.30;7.40;;;;;;;;;;6085768;23;20022;-79
2023/01/27 11:13:08;;;;;;;10.30;5.75;;;;;;;;;;6084712;23;20022;-79
2023/01/27 11:15:53;;;;;;;9.77;6.00;;;;;;;;;;6107069;23;20019;-79
2023/01/27 11:18:40;;;;;;;11.80;8.60;;;;;;;;;;6064977;23;20026;-78
2023/01/27 11:21:30;;;;;;;11.30;7.05;;;;;;;;;;6084908;23;20428;-79
2023/01/27 11:24:27;;;;;;;6.57;5.07;;;;;;;;;;6106729;23;20019;-80
2023/01/27 11:27:40;;;;;;;12.90;7.05;;;;;;;;;;6095153;23;20356;-79
2023/01/27 11:30:38;;;;;;;6.65;4.88;;;;;;;;;;6105917;23;20022;-80
2023/01/27 11:33:30;;;;;;;24.67;11.45;;;;;;;;;;6106277;23;20436;-80
2023/01/27 11:36:16;;;;;;;24.25;10.75;;;;;;;;;;6105841;23;20348;-79
2023/01/27 11:39:03;;;;;;;13.65;8.30;;;;;;;;;;6104736;23;20026;-79
2023/01/27 11:41:54;;;;;;;10.13;6.93;;;;;;;;;;6105967;23;20023;-81
2023/01/27 11:44:42;;;;;;;5.18;4.07;;;;;;;;;;6105906;23;20436;-80
2023/01/27 11:47:32;;;;;;;9.30;5.38;;;;;;;;;;6106393;23;20022;-80
2023/01/27 11:50:19;;;;;;;9.02;5.80;;;;;;;;;;6106180;23;20470;-78
2023/01/27 11:53:23;;;;;;;7.80;5.10;;;;;;;;;;6106455;23;20795;-81
2023/01/27 11:56:16;;;;;;;16.58;9.38;;;;;;;;;;6106549;23;20022;-79
2023/01/27 11:59:00;;;;;;;11.00;6.97;;;;;;;;;;6107902;23;20463;-79
2023/01/27 12:02:02;;;;;;;12.77;6.90;;;;;;;;;;6108628;23;20018;-81
2023/01/27 12:05:00;;;;;;;4.80;3.30;;;;;;;;;;6108454;23;20018;-79
2023/01/27 12:07:53;;;;;;;5.25;4.53;;;;;;;;;;6107920;23;20018;-81
2023/01/27 12:10:43;;;;;;;4.28;3.58;;;;;;;;;;6107714;23;20019;-79
2023/01/27 12:13:28;;;;;;;7.78;4.82;;;;;;;;;;6107175;23;20023;-80
2023/01/27 12:16:13;;;;;;;8.05;5.13;;;;;;;;;;6108830;23;20019;-80
2023/01/27 12:19:02;;;;;;;12.48;6.97;;;;;;;;;;6106255;23;20019;-81
2023/01/27 12:21:55;;;;;;;15.70;10.13;;;;;;;;;;6099479;23;20023;-80
2023/01/27 12:24:48;;;;;;;12.90;7.45;;;;;;;;;;6087188;23;20022;-80
2023/01/27 12:27:40;;;;;;;12.38;8.20;;;;;;;;;;6108998;23;20026;-81
2023/01/27 12:30:28;;;;;;;11.45;7.45;;;;;;;;;;6086826;23;20364;-80
2023/01/27 12:33:22;;;;;;;11.80;8.00;;;;;;;;;;6108385;23;20436;-81
2023/01/27 12:36:16;;;;;;;13.73;9.00;;;;;;;;;;6066317;23;20022;-80
2023/01/27 12:39:02;;;;;;;10.32;5.78;;;;;;;;;;6108345;23;20436;-82
2023/01/27 12:41:48;;;;;;;11.77;6.90;;;;;;;;;;6108870;23;20018;-81
2023/01/27 12:44:42;;;;;;;7.75;5.32;;;;;;;;;;6108847;23;20436;-81
2023/01/27 12:47:29;;;;;;;23.58;11.02;;;;;;;;;;6108213;23;20448;-80
2023/01/27 12:50:23;;;;;;;17.83;8.73;;;;;;;;;;6108299;23;20445;-80
2023/01/27 12:53:14;;;;;;;13.85;7.85;;;;;;;;;;6086757;23;20015;-81
2023/01/27 12:56:11;;;;;;;18.75;9.45;;;;;;;;;;6086267;23;20026;-79
2023/01/27 12:58:59;;;;;;;18.10;8.05;;;;;;;;;;6086862;23;20018;-79
2023/01/27 13:02:14;;;;;;;15.48;8.27;;;;;;;;;;6086649;23;20018;-79
2023/01/27 13:05:04;;;;;;;;;;;;;;;;;;6108315;23;20023;-79
2023/01/27 13:07:52;;;;;;;12.07;6.82;;;;;;;;;;6065859;23;19913;-81
2023/01/27 13:10:37;;;;;;;8.52;4.40;;;;;;;;;;6086293;23;20022;-80
2023/01/27 13:13:25;;;;;;;16.65;9.05;;;;;;;;;;6108573;23;20019;-80
2023/01/27 13:16:25;;;;;;;9.75;6.10;;;;;;;;;;6107140;23;20018;-80
2023/01/27 13:19:16;;;;;;;12.55;8.80;;;;;;;;;;6108276;23;20022;-80
2023/01/27 13:22:02;;;;;;;15.85;10.18;;;;;;;;;;6100651;23;20440;-79
2023/01/27 13:24:53;;;;;;;8.88;5.57;;;;;;;;;;6105441;23;20022;-80
2023/01/27 13:27:39;;;;;;;12.10;7.07;;;;;;;;;;6106863;23;20019;-79
2023/01/27 13:30:37;;;;;;;8.38;5.28;;;;;;;;;;6108547;23;20022;-80
2023/01/27 13:33:39;;;;;;;11.57;7.10;;;;;;;;;;6106081;23;20320;-80
2023/01/27 13:36:38;;;;;;;9.63;6.60;;;;;;;;;;6107704;23;20026;-79
2023/01/27 13:39:51;;;;;;;10.13;6.80;;;;;;;;;;6107647;23;20022;-79
2023/01/27 13:42:52;;;;;;;11.30;6.25;;;;;;;;;;6106927;23;20452;-78
2023/01/27 13:45:44;;;;;;;9.15;6.47;;;;;;;;;;6105108;23;20018;-78
2023/01/27 13:48:47;;;;;;;12.77;8.20;;;;;;;;;;6106807;23;20026;-79
2023/01/27 13:51:32;;;;;;;17.27;11.35;;;;;;;;;;6105329;23;20337;-80
2023/01/27 13:54:18;;;;;;;8.20;5.40;;;;;;;;;;6107285;23;20022;-82
2023/01/27 13:57:12;;;;;;;10.65;7.50;;;;;;;;;;6106696;23;20015;-81
2023/01/27 14:00:05;;;;;;;16.05;9.15;;;;;;;;;;6107685;23;20026;-81
2023/01/27 14:03:21;;;;;;;12.45;7.95;;;;;;;;;;6107952;23;20023;-81
2023/01/27 14:06:09;;;;;;;10.13;7.00;;;;;;;;;;6106120;23;20018;-81
2023/01/27 14:09:02;;;;;;;11.15;7.47;;;;;;;;;;6108154;23;20428;-79
2023/01/27 14:12:13;;;;;;;9.85;6.07;;;;;;;;;;6107484;23;20019;-81
2023/01/27 14:14:58;;;;;;;14.48;8.50;;;;;;;;;;6107239;23;20019;-80
2023/01/27 14:17:57;;;;;;;16.08;9.30;;;;;;;;;;6106457;23;20018;-81
2023/01/27 14:20:48;;;;;;;11.38;6.38;;;;;;;;;;6102925;23;20022;-80
2023/01/27 14:24:04;;;;;;;8.48;6.00;;;;;;;;;;6086516;23;20023;-80
2023/01/27 14:27:14;;;;;;;11.13;7.28;;;;;;;;;;6106925;23;20026;-80
2023/01/27 14:30:25;;;;;;;24.20;11.35;;;;;;;;;;6107532;23;20452;-80
2023/01/27 14:33:14;;;;;;;21.17;9.13;;;;;;;;;;6075912;23;20452;-79
2023/01/27 14:36:16;;;;;;;15.50;8.25;;;;;;;;;;6107197;23;20340;-78
2023/01/27 14:39:17;;;;;;;30.40;15.63;;;;;;;;;;6107112;23;20436;-78
2023/01/27 14:42:24;;;;;;;14.63;8.45;;;;;;;;;;6107035;23;20022;-78
2023/01/27 14:45:31;;;;;;;7.13;4.85;;;;;;;;;;6085870;23;20022;-79
2023/01/27 14:48:25;;;;;;;8.35;5.03;;;;;;;;;;6065017;23;20336;-80
2023/01/27 14:51:17;;;;;;;14.45;6.47;;;;;;;;;;6107373;23;20022;-79
2023/01/27 14:54:05;;;;;;;22.83;9.70;;;;;;;;;;6107131;23;20023;-78
2023/01/27 14:57:16;;;;;;;12.05;6.70;;;;;;;;;;6106905;23;20022;-78
2023/01/27 15:00:31;;;;;;;8.43;6.10;;;;;;;;;;6107350;23;20026;-80
2023/01/27 15:03:44;;;;;;;7.60;5.47;;;;;;;;;;6084962;23;20022;-81
2023/01/27 15:06:47;;;;;;;8.13;5.43;;;;;;;;;;6085626;23;20241;-81
2023/01/27 15:10:16;;;;;;;11.38;6.32;;;;;;;;;;6085119;23;20019;-79
2023/01/27 15:13:23;;;;;;;8.43;6.22;;;;;;;;;;6085503;23;20026;-83
2023/01/27 15:16:18;;;;;;;7.65;5.38;;;;;;;;;;6084835;23;20348;-81
2023/01/27 15:19:28;;;;;;;9.35;5.13;;;;;;;;;;6107506;23;20022;-83
2023/01/27 15:22:50;;;;;;;15.05;8.07;;;;;;;;;;6098003;23;20026;-83
2023/01/27 15:25:51;;;;;;;8.98;5.38;;;;;;;;;;6106774;23;20022;-83
2023/01/27 15:28:40;;;;;;;14.23;8.52;;;;;;;;;;6085972;23;20022;-81
2023/01/27 15:31:29;;;;;;;11.98;7.50;;;;;;;;;;6064507;23;20022;-83
2023/01/27 15:34:22;;;;;;;8.23;5.72;;;;;;;;;;6065618;23;20444;-82
2023/01/27 15:37:18;;;;;;;5.30;3.85;;;;;;;;;;6106527;23;20344;-80
2023/01/27 15:40:04;;;;;;;6.32;4.70;;;;;;;;;;6085823;23;20022;-81
2023/01/27 15:42:59;;;;;;;8.57;5.43;;;;;;;;;;6106797;23;20435;-82
2023/01/27 15:45:45;;;;;;;15.70;9.17;;;;;;;;;;6084646;23;20026;-82
2023/01/27 15:48:33;;;;;;;17.83;11.05;;;;;;;;;;6085441;23;20360;-82
2023/01/27 15:51:20;;;;;;;15.10;9.38;;;;;;;;;;6106327;23;20023;-80
2023/01/27 15:54:15;;;;;;;21.52;12.15;;;;;;;;;;6085935;23;20026;-80
2023/01/27 15:57:04;;;;;;;10.32;6.05;;;;;;;;;;6084554;23;20023;-81
2023/01/27 15:59:52;;;;;;;12.20;8.40;;;;;;;;;;6106010;23;20018;-80
2023/01/27 16:02:43;;;;;;;29.05;15.43;;;;;;;;;;6084962;23;20348;-81
2023/01/27 16:05:52;;;;;;;23.30;11.07;;;;;;;;;;6105510;23;20026;-82
2023/01/27 16:08:42;;;;;;;28.00;14.27;;;;;;;;;;6084591;23;20022;-81
2023/01/27 16:11:26;;;;;;;9.65;7.63;;;;;;;;;;6085467;23;20026;-82
2023/01/27 16:14:11;;;;;;;29.73;15.70;;;;;;;;;;6085367;23;20023;-81
2023/01/27 16:17:06;;;;;;;42.00;17.15;;;;;;;;;;6106667;23;20015;-80
2023/01/27 16:20:41;;;;;;;14.88;9.20;;;;;;;;;;6085006;23;20018;-80
2023/01/27 16:23:37;;;;;;;33.22;16.17;;;;;;;;;;6058878;23;20023;-81
2023/01/27 16:26:31;;;;;;;21.83;12.18;;;;;;;;;;6077008;23;20437;-81
2023/01/27 16:29:43;;;;;;;23.40;13.85;;;;;;;;;;6057104;23;20441;-80
2023/01/27 16:32:36;;;;;;;36.63;20.52;;;;;;;;;;6078002;23;20026;-81
2023/01/27 16:35:22;;;;;;;33.20;18.23;;;;;;;;;;6077857;23;20027;-80
2023/01/27 16:38:31;;;;;;;34.08;19.65;;;;;;;;;;6056813;23;20022;-81
2023/01/27 16:41:20;;;;;;;52.15;22.77;;;;;;;;;;6077312;23;20015;-81
2023/01/27 16:44:29;;;;;;;40.92;21.05;;;;;;;;;;6058249;23;20398;-81
2023/01/27 16:47:44;;;;;;;48.72;27.70;;;;;;;;;;6038039;23;20023;-82
2023/01/27 16:50:40;;;;;;;43.67;22.52;;;;;;;;;;6078648;23;20023;-80
2023/01/27 16:53:25;;;;;;;54.80;27.52;;;;;;;;;;6056359;23;20030;-80
2023/01/27 16:56:17;;;;;;;57.95;29.83;;;;;;;;;;6078752;23;20031;-80
2023/01/27 16:59:08;;;;;;;47.10;22.58;;;;;;;;;;6058077;23;20027;-80
2023/01/27 17:02:01;;;;;;;66.47;32.33;;;;;;;;;;6079073;23;20027;-81
2023/01/27 17:04:56;;;;;;;62.45;32.33;;;;;;;;;;6079499;23;20344;-79
2023/01/27 17:08:16;;;;;;;54.90;28.98;;;;;;;;;;6079074;23;20023;-82
2023/01/27 17:11:15;;;;;;;51.08;26.98;;;;;;;;;;6057274;23;20445;-81
2023/01/27 17:14:03;;;;;;;43.45;24.55;;;;;;;;;;6078409;23;20030;-81